Terminal Aerodrome Forecast
Issued by NWS Newport/Morehead City, NC

Home | Current Version | Previous Version | Text Only | Print | Product List | Glossary On
Versions: 1 2 3 4 5 6 7 8 9 10 11 12 13 14 15 16 17 18
000
FTUS42 KMHX 231726
TAFEWN
TAF
KEWN 231726Z 2318/2418 23011KT P6SM VCSH BKN040
      TEMPO 2320/2324 VRB30KT 4SM TSRA SCT025 BKN035CB
     FM240100 22008KT P6SM VCSH SCT025 BKN040
     FM240600 VRB05KT P6SM BKN040
     FM241200 04008KT P6SM BKN050=

USA.gov is the U.S. government's official web portal to all federal, state and local government web resources and services.